Estación de San Felipe

Ultimos registro cada 15 minutos 59
Estación Fecha / Hora Temperatura Humedad Lluvia Velocidad Dirección Radiación Presion
59 San Felipe 06-05-2026 14:30 18,4 61,1 0 0 13 168,1 940,1
58 San Felipe 06-05-2026 14:15 19,2 54,9 0 0 326 165,6 940,1
57 San Felipe 06-05-2026 14:00 20,4 46,7 0 0 286 144,4 940
56 San Felipe 06-05-2026 13:45 20,4 46,9 0 0 253 170,6 939,8
55 San Felipe 06-05-2026 13:30 19,9 48 0 0,5 248 180,6 940,1
54 San Felipe 06-05-2026 13:15 20,7 44,2 0 0,5 260 184,4 940,1
53 San Felipe 06-05-2026 13:00 20,4 44,8 0 0,5 241 209,4 939,7
52 San Felipe 06-05-2026 12:45 20,8 44,4 0 0 288 204,4 939,9
51 San Felipe 06-05-2026 12:30 21 48,2 0 0 59 261,9 939,8
50 San Felipe 06-05-2026 12:15 20,7 51,7 0 0 72 230,6 939,6
49 San Felipe 06-05-2026 12:00 19,9 53,8 0 0 73 224,4 940
48 San Felipe 06-05-2026 11:45 19,4 57,3 0 0 105 214,4 940
47 San Felipe 06-05-2026 11:30 19,5 60,4 0 0 94 213,1 940,3
46 San Felipe 06-05-2026 11:15 19,6 62,1 0 0 27 479,4 939,7
45 San Felipe 06-05-2026 11:00 18,8 63,7 0 0 29 289,4 939,9
44 San Felipe 06-05-2026 10:45 18,3 66,8 0 0 52 441,9 940,2
43 San Felipe 06-05-2026 10:30 17,3 70,5 0 0 81 329,4 940,6
42 San Felipe 06-05-2026 10:15 16,3 75,7 0 0 126 166,9 940,3
41 San Felipe 06-05-2026 10:00 14,9 80,5 0 0 147 119,4 940,6
40 San Felipe 06-05-2026 09:45 14,6 86,2 0 0 128 124,4 940,8
39 San Felipe 06-05-2026 09:30 12,6 93,1 0 0 77 109,4 941,1
38 San Felipe 06-05-2026 09:15 11 96,2 0 0 48 39,4 941,1
37 San Felipe 06-05-2026 09:00 10,5 96,2 0 0 48 34,4 941,2
36 San Felipe 06-05-2026 08:45 10 96,5 0 0 46 178,1 940,9
35 San Felipe 06-05-2026 08:30 9 96,9 0 0 46 39,4 941
34 San Felipe 06-05-2026 08:15 6,5 97,7 0 0 39 21,9 940,9
33 San Felipe 06-05-2026 08:00 5,3 97,5 0 0 345 8,1 940,6
32 San Felipe 06-05-2026 07:45 5 97,5 0 0 345 4,4 940,3
31 San Felipe 06-05-2026 07:30 4,9 97,5 0 0 345 1,9 940,1
30 San Felipe 06-05-2026 07:15 4,8 97,3 0 0 345 0,6 940
29 San Felipe 06-05-2026 07:00 4,6 97,2 0 0 345 0,6 939,6
28 San Felipe 06-05-2026 06:45 4,7 96,9 0 0 345 0,6 939,4
27 San Felipe 06-05-2026 06:30 4,7 96,6 0 0 345 0,6 939,4
26 San Felipe 06-05-2026 06:15 5,1 96,7 0 0 345 0,6 939,2
25 San Felipe 06-05-2026 06:00 4,7 96,7 0 0 345 0,6 939
24 San Felipe 06-05-2026 05:45 4,7 96,5 0 0 345 0,6 938,7
23 San Felipe 06-05-2026 05:30 5,7 96,5 0 0 345 0,6 938,5
22 San Felipe 06-05-2026 05:15 5,7 96 0 0 345 0,6 938,3
21 San Felipe 06-05-2026 05:00 6 96,1 0 0 345 0,6 938,3
20 San Felipe 06-05-2026 04:45 6,2 95,6 0 0 345 0,6 938
19 San Felipe 06-05-2026 04:30 7,2 95,4 0 0 345 0,6 938,1
18 San Felipe 06-05-2026 04:15 7 95,4 0 0 345 0,6 938
17 San Felipe 06-05-2026 04:00 7,2 95 0 0 334 0,6 938
16 San Felipe 06-05-2026 03:45 7,2 94,7 0 0 316 0,6 938,1
15 San Felipe 06-05-2026 03:30 7,5 94,3 0 0 316 0,6 937,9
14 San Felipe 06-05-2026 03:15 8,2 94 0 0 316 0,6 937,9
13 San Felipe 06-05-2026 03:00 8,2 93,5 0 0 316 0,6 938
12 San Felipe 06-05-2026 02:45 8,8 93,4 0 0 316 0,6 937,9
11 San Felipe 06-05-2026 02:30 9 92,9 0 0 316 0,6 938,4
10 San Felipe 06-05-2026 02:15 9,1 93 0 0 316 0,6 938,4
9 San Felipe 06-05-2026 02:00 9,3 92,7 0 0 316 0,6 938,4
8 San Felipe 06-05-2026 01:45 9,5 92,3 0 0 316 0,6 938,5
7 San Felipe 06-05-2026 01:30 9,6 91,3 0 0 316 0,6 938,4
6 San Felipe 06-05-2026 01:15 9,8 90,5 0 0 316 0,6 938,4
5 San Felipe 06-05-2026 01:00 10,2 89,5 0 0 316 0,6 938,5
4 San Felipe 06-05-2026 00:45 10,5 88,2 0 0 320 0,6 938,5
3 San Felipe 06-05-2026 00:30 10,9 87,1 0 0 324 0,6 938,5
2 San Felipe 06-05-2026 00:15 11,2 85,7 0 0 324 0,6 938,4
1 San Felipe 06-05-2026 00:00 11,7 84,9 0 0 326 0,6 938,3